N234PP KHRL-KCRP
Flight info
| Callsign | N234PP |
|---|---|
| Flight time | N/A |
| Altitude | 5000 |
| Route | MANNY V163 CRP |
| Aircraft | C208/L-SDFGR/C |
Departure
| Time | 2026-05-05 19:54 |
|---|---|
| Airport | Valley International Airport (KHRL) |
Arrival
| Time | N/A |
|---|---|
| Airport | Corpus Christi International Airport (KCRP) |
| Time | Latitude | Longitude | Altitude | Speed | Heading |
|---|---|---|---|---|---|
| 2026-05-05 19:34 | 26.22620 | -97.64683 | 44 ft | 0 kts | 270° |
| 2026-05-05 19:50 | 26.22620 | -97.64684 | 44 ft | 0 kts | 270° |
| 2026-05-05 19:51 | 26.22621 | -97.64689 | 44 ft | 5 kts | 287° |
| 2026-05-05 19:51 | 26.22706 | -97.64703 | 44 ft | 12 kts | 0° |
| 2026-05-05 19:51 | 26.22778 | -97.64755 | 44 ft | 19 kts | 3° |
| 2026-05-05 19:51 | 26.22937 | -97.64752 | 44 ft | 30 kts | 0° |
| 2026-05-05 19:52 | 26.23149 | -97.64751 | 45 ft | 27 kts | 3° |
| 2026-05-05 19:52 | 26.23313 | -97.64748 | 44 ft | 18 kts | 358° |
| 2026-05-05 19:52 | 26.23373 | -97.64778 | 44 ft | 4 kts | 277° |
| 2026-05-05 19:52 | 26.23373 | -97.64782 | 44 ft | 1 kts | 274° |
| 2026-05-05 19:53 | 26.23375 | -97.64842 | 45 ft | 12 kts | 265° |
| 2026-05-05 19:53 | 26.23322 | -97.64871 | 45 ft | 3 kts | 176° |
| 2026-05-05 19:53 | 26.23129 | -97.64874 | 47 ft | 50 kts | 180° |
| 2026-05-05 19:53 | 26.22690 | -97.64882 | 101 ft | 70 kts | 179° |
| 2026-05-05 19:54 | 26.22207 | -97.64900 | 295 ft | 67 kts | 181° |
| 2026-05-05 19:54 | 26.21767 | -97.64818 | 475 ft | 68 kts | 153° |
| 2026-05-05 19:54 | 26.21440 | -97.64395 | 694 ft | 75 kts | 122° |
| 2026-05-05 19:54 | 26.21460 | -97.63770 | 909 ft | 92 kts | 71° |
| 2026-05-05 19:55 | 26.21882 | -97.63149 | 1063 ft | 105 kts | 59° |
| 2026-05-05 19:55 | 26.22326 | -97.62523 | 1299 ft | 101 kts | 62° |
| 2026-05-05 19:55 | 26.22763 | -97.61901 | 1507 ft | 103 kts | 61° |
| 2026-05-05 19:55 | 26.23241 | -97.61307 | 1740 ft | 105 kts | 62° |
| 2026-05-05 19:56 | 26.23767 | -97.60687 | 1943 ft | 112 kts | 57° |
| 2026-05-05 19:56 | 26.24276 | -97.60030 | 2136 ft | 113 kts | 61° |
| 2026-05-05 19:56 | 26.24790 | -97.59337 | 2295 ft | 119 kts | 58° |
| 2026-05-05 19:56 | 26.25350 | -97.58638 | 2500 ft | 122 kts | 57° |
| 2026-05-05 19:57 | 26.26052 | -97.58059 | 2689 ft | 132 kts | 27° |
| 2026-05-05 19:57 | 26.26908 | -97.57680 | 2934 ft | 132 kts | 29° |
| 2026-05-05 19:57 | 26.27750 | -97.57253 | 3179 ft | 135 kts | 27° |
| 2026-05-05 19:57 | 26.28604 | -97.56813 | 3417 ft | 135 kts | 25° |
| 2026-05-05 19:58 | 26.29454 | -97.56378 | 3658 ft | 134 kts | 27° |
| 2026-05-05 19:58 | 26.30292 | -97.55942 | 3894 ft | 132 kts | 26° |
| 2026-05-05 19:58 | 26.31120 | -97.55511 | 4129 ft | 131 kts | 26° |
| 2026-05-05 19:58 | 26.31942 | -97.55087 | 4377 ft | 133 kts | 22° |
| 2026-05-05 19:59 | 26.32773 | -97.54648 | 4618 ft | 131 kts | 24° |
| 2026-05-05 19:59 | 26.33606 | -97.54198 | 4854 ft | 134 kts | 23° |
| 2026-05-05 19:59 | 26.34483 | -97.53756 | 4980 ft | 146 kts | 24° |
| 2026-05-05 19:59 | 26.35454 | -97.53248 | 5000 ft | 161 kts | 24° |
| 2026-05-05 20:00 | 26.36498 | -97.52694 | 4997 ft | 171 kts | 25° |
| 2026-05-05 20:00 | 26.37597 | -97.52118 | 4998 ft | 176 kts | 23° |
| 2026-05-05 20:00 | 26.38690 | -97.51552 | 4996 ft | 170 kts | 24° |
| 2026-05-05 20:00 | 26.39747 | -97.50999 | 4994 ft | 166 kts | 24° |
| 2026-05-05 20:01 | 26.40781 | -97.50459 | 4992 ft | 163 kts | 24° |
| 2026-05-05 20:01 | 26.41801 | -97.49929 | 5004 ft | 163 kts | 24° |
| 2026-05-05 20:01 | 26.42817 | -97.49397 | 4999 ft | 160 kts | 24° |
| 2026-05-05 20:01 | 26.43829 | -97.48870 | 4995 ft | 162 kts | 24° |
| 2026-05-05 20:02 | 26.44849 | -97.48334 | 4999 ft | 162 kts | 24° |
| 2026-05-05 20:02 | 26.45867 | -97.47798 | 5001 ft | 161 kts | 23° |
| 2026-05-05 20:02 | 26.46884 | -97.47266 | 5004 ft | 162 kts | 24° |
| 2026-05-05 20:02 | 26.47907 | -97.46733 | 4999 ft | 162 kts | 24° |
| 2026-05-05 20:03 | 26.48921 | -97.46200 | 5002 ft | 160 kts | 24° |
| 2026-05-05 20:03 | 26.49926 | -97.45678 | 5002 ft | 161 kts | 24° |
| 2026-05-05 20:03 | 26.50945 | -97.45136 | 5000 ft | 162 kts | 24° |
| 2026-05-05 20:03 | 26.51966 | -97.44600 | 4999 ft | 162 kts | 24° |
| 2026-05-05 20:04 | 26.52980 | -97.44075 | 5003 ft | 160 kts | 23° |
| 2026-05-05 20:04 | 26.54005 | -97.43542 | 5000 ft | 164 kts | 24° |
| 2026-05-05 20:04 | 26.55031 | -97.43003 | 5004 ft | 162 kts | 24° |
| 2026-05-05 20:04 | 26.56055 | -97.42464 | 5006 ft | 163 kts | 25° |
| 2026-05-05 20:05 | 26.57086 | -97.41926 | 5003 ft | 163 kts | 24° |
| 2026-05-05 20:05 | 26.58107 | -97.41388 | 5001 ft | 162 kts | 24° |
| 2026-05-05 20:05 | 26.59128 | -97.40852 | 5001 ft | 162 kts | 25° |
| 2026-05-05 20:05 | 26.60152 | -97.40313 | 4997 ft | 163 kts | 23° |
| 2026-05-05 20:06 | 26.61210 | -97.39889 | 4994 ft | 161 kts | 3° |
| 2026-05-05 20:06 | 26.62312 | -97.39924 | 4994 ft | 158 kts | 350° |
| 2026-05-05 20:06 | 26.63420 | -97.39996 | 4996 ft | 160 kts | 352° |
| 2026-05-05 20:06 | 26.64537 | -97.40037 | 5002 ft | 160 kts | 354° |
| 2026-05-05 20:07 | 26.65638 | -97.40081 | 5002 ft | 159 kts | 354° |
| 2026-05-05 20:07 | 26.66764 | -97.40116 | 5005 ft | 164 kts | 354° |
| 2026-05-05 20:07 | 26.67895 | -97.40151 | 5010 ft | 166 kts | 354° |
| 2026-05-05 20:07 | 26.69060 | -97.40193 | 5009 ft | 168 kts | 354° |
| 2026-05-05 20:08 | 26.70223 | -97.40234 | 5005 ft | 167 kts | 354° |
| 2026-05-05 20:08 | 26.71388 | -97.40282 | 5003 ft | 167 kts | 353° |
| 2026-05-05 20:08 | 26.72558 | -97.40320 | 5005 ft | 169 kts | 355° |
| 2026-05-05 20:08 | 26.73736 | -97.40352 | 5007 ft | 168 kts | 356° |
| 2026-05-05 20:09 | 26.74903 | -97.40396 | 5005 ft | 169 kts | 354° |
| 2026-05-05 20:09 | 26.76075 | -97.40443 | 5005 ft | 169 kts | 354° |
| 2026-05-05 20:09 | 26.77253 | -97.40484 | 5006 ft | 169 kts | 354° |
| 2026-05-05 20:09 | 26.78417 | -97.40524 | 5007 ft | 166 kts | 356° |
| 2026-05-05 20:10 | 26.79583 | -97.40554 | 5009 ft | 168 kts | 355° |
| 2026-05-05 20:10 | 26.80740 | -97.40599 | 5005 ft | 168 kts | 355° |
| 2026-05-05 20:10 | 26.81913 | -97.40639 | 5008 ft | 168 kts | 355° |
| 2026-05-05 20:10 | 26.83079 | -97.40685 | 5007 ft | 168 kts | 355° |
| 2026-05-05 20:11 | 26.84254 | -97.40729 | 5000 ft | 169 kts | 354° |
| 2026-05-05 20:11 | 26.85433 | -97.40769 | 5005 ft | 169 kts | 355° |
| 2026-05-05 20:11 | 26.86611 | -97.40807 | 5004 ft | 168 kts | 353° |
| 2026-05-05 20:11 | 26.87780 | -97.40859 | 5001 ft | 169 kts | 353° |
| 2026-05-05 20:12 | 26.88962 | -97.40895 | 5002 ft | 169 kts | 355° |
| 2026-05-05 20:12 | 26.90137 | -97.40930 | 5003 ft | 168 kts | 355° |
| 2026-05-05 20:12 | 26.91310 | -97.40976 | 5002 ft | 169 kts | 355° |
| 2026-05-05 20:12 | 26.92487 | -97.41016 | 5003 ft | 170 kts | 353° |
| 2026-05-05 20:13 | 26.93672 | -97.41057 | 5005 ft | 170 kts | 355° |
| 2026-05-05 20:13 | 26.94848 | -97.41097 | 5008 ft | 169 kts | 352° |
| 2026-05-05 20:13 | 26.96008 | -97.41147 | 5005 ft | 169 kts | 354° |
| 2026-05-05 20:13 | 26.97190 | -97.41181 | 5009 ft | 170 kts | 354° |
| 2026-05-05 20:14 | 26.98373 | -97.41217 | 5006 ft | 169 kts | 356° |
| 2026-05-05 20:14 | 26.99552 | -97.41265 | 5005 ft | 170 kts | 355° |
| 2026-05-05 20:14 | 27.00729 | -97.41305 | 5005 ft | 172 kts | 354° |
| 2026-05-05 20:14 | 27.01923 | -97.41354 | 5008 ft | 171 kts | 355° |
| 2026-05-05 20:15 | 27.03113 | -97.41395 | 5003 ft | 172 kts | 355° |
| 2026-05-05 20:15 | 27.04313 | -97.41442 | 5004 ft | 173 kts | 354° |
| 2026-05-05 20:15 | 27.05514 | -97.41485 | 5008 ft | 172 kts | 355° |
| 2026-05-05 20:15 | 27.06706 | -97.41535 | 5009 ft | 171 kts | 354° |
| 2026-05-05 20:16 | 27.07888 | -97.41594 | 5007 ft | 170 kts | 353° |
| 2026-05-05 20:16 | 27.09080 | -97.41661 | 5005 ft | 171 kts | 354° |
| 2026-05-05 20:16 | 27.10273 | -97.41728 | 5008 ft | 171 kts | 354° |
| 2026-05-05 20:16 | 27.11461 | -97.41801 | 5007 ft | 170 kts | 354° |
| 2026-05-05 20:17 | 27.12646 | -97.41880 | 4998 ft | 171 kts | 352° |
| 2026-05-05 20:17 | 27.13831 | -97.41973 | 5000 ft | 170 kts | 352° |
| 2026-05-05 20:17 | 27.15009 | -97.42083 | 5001 ft | 169 kts | 352° |
| 2026-05-05 20:17 | 27.16183 | -97.42191 | 4999 ft | 170 kts | 352° |
| 2026-05-05 20:18 | 27.17364 | -97.42305 | 4999 ft | 169 kts | 352° |
| 2026-05-05 20:18 | 27.18546 | -97.42347 | 5003 ft | 170 kts | 358° |
| 2026-05-05 20:18 | 27.19727 | -97.42357 | 5001 ft | 169 kts | 355° |
| 2026-05-05 20:18 | 27.20897 | -97.42389 | 5000 ft | 171 kts | 354° |
| 2026-05-05 20:19 | 27.22088 | -97.42431 | 5007 ft | 171 kts | 354° |
| 2026-05-05 20:19 | 27.23272 | -97.42469 | 5006 ft | 170 kts | 356° |
| 2026-05-05 20:19 | 27.24452 | -97.42490 | 5007 ft | 170 kts | 354° |
| 2026-05-05 20:19 | 27.25642 | -97.42532 | 5011 ft | 171 kts | 354° |
| 2026-05-05 20:20 | 27.26832 | -97.42572 | 5003 ft | 171 kts | 356° |
| 2026-05-05 20:20 | 27.28030 | -97.42605 | 5006 ft | 171 kts | 355° |
| 2026-05-05 20:20 | 27.29213 | -97.42636 | 5002 ft | 172 kts | 355° |
| 2026-05-05 20:20 | 27.30412 | -97.42671 | 5003 ft | 172 kts | 355° |
| 2026-05-05 20:21 | 27.31604 | -97.42708 | 4993 ft | 171 kts | 355° |
| 2026-05-05 20:21 | 27.32800 | -97.42743 | 4996 ft | 172 kts | 354° |
| 2026-05-05 20:21 | 27.33996 | -97.42789 | 4992 ft | 172 kts | 354° |
| 2026-05-05 20:21 | 27.35187 | -97.42826 | 4998 ft | 170 kts | 355° |
| 2026-05-05 20:22 | 27.36382 | -97.42853 | 5004 ft | 172 kts | 354° |
| 2026-05-05 20:22 | 27.37581 | -97.42895 | 4999 ft | 173 kts | 354° |
| 2026-05-05 20:22 | 27.38781 | -97.42939 | 5003 ft | 172 kts | 355° |
| 2026-05-05 20:22 | 27.39974 | -97.42969 | 4998 ft | 171 kts | 355° |
| 2026-05-05 20:23 | 27.41154 | -97.42993 | 4999 ft | 172 kts | 354° |
| 2026-05-05 20:23 | 27.42348 | -97.43035 | 4996 ft | 172 kts | 355° |
| 2026-05-05 20:23 | 27.43532 | -97.43070 | 4998 ft | 170 kts | 354° |
| 2026-05-05 20:23 | 27.44720 | -97.43107 | 4995 ft | 172 kts | 355° |
| 2026-05-05 20:24 | 27.45914 | -97.43142 | 4991 ft | 171 kts | 355° |
| 2026-05-05 20:24 | 27.47103 | -97.43176 | 4997 ft | 169 kts | 356° |
| 2026-05-05 20:24 | 27.48285 | -97.43220 | 4993 ft | 170 kts | 353° |
| 2026-05-05 20:24 | 27.49470 | -97.43261 | 4991 ft | 170 kts | 357° |
| 2026-05-05 20:25 | 27.50631 | -97.43277 | 5000 ft | 169 kts | 354° |
| 2026-05-05 20:25 | 27.51801 | -97.43328 | 4992 ft | 167 kts | 355° |
| 2026-05-05 20:25 | 27.52981 | -97.43356 | 4992 ft | 176 kts | 358° |
| 2026-05-05 20:25 | 27.54207 | -97.43486 | 5051 ft | 185 kts | 351° |
| 2026-05-05 20:26 | 27.55516 | -97.43564 | 4170 ft | 214 kts | 358° |
| 2026-05-05 20:26 | 27.56985 | -97.43797 | 4110 ft | 198 kts | 332° |
| 2026-05-05 20:26 | 27.58213 | -97.44338 | 4323 ft | 182 kts | 334° |
| 2026-05-05 20:26 | 27.59408 | -97.44682 | 4426 ft | 171 kts | 345° |
| 2026-05-05 20:27 | 27.60543 | -97.44940 | 4537 ft | 163 kts | 349° |
| 2026-05-05 20:27 | 27.61652 | -97.45186 | 4646 ft | 163 kts | 341° |
| 2026-05-05 20:27 | 27.62396 | -97.45359 | 4733 ft | 166 kts | 345° |
| 2026-05-05 20:27 | 27.63567 | -97.45580 | 4853 ft | 174 kts | 344° |
| 2026-05-05 20:28 | 27.64763 | -97.45858 | 4977 ft | 179 kts | 344° |
| 2026-05-05 20:28 | 27.66270 | -97.46483 | 4985 ft | 168 kts | 309° |
| 2026-05-05 20:28 | 27.67001 | -97.47478 | 4998 ft | 164 kts | 300° |
| 2026-05-05 20:28 | 27.67715 | -97.48485 | 5002 ft | 165 kts | 302° |
| 2026-05-05 20:29 | 27.68219 | -97.49150 | 4997 ft | 164 kts | 305° |
| 2026-05-05 20:29 | 27.68949 | -97.50184 | 4779 ft | 172 kts | 302° |
| 2026-05-05 20:29 | 27.69446 | -97.50879 | 4628 ft | 172 kts | 303° |